sensor_id;sensor_type;location;lat;lon;timestamp;temperature;humidity
1135;DHT22;556;53.550;10.048;2022-11-02T00:00:13;15.50;46.70
1135;DHT22;556;53.550;10.048;2022-11-02T00:02:42;15.50;46.70
1135;DHT22;556;53.550;10.048;2022-11-02T00:05:12;15.60;46.70
1135;DHT22;556;53.550;10.048;2022-11-02T00:07:41;15.60;46.70
1135;DHT22;556;53.550;10.048;2022-11-02T00:10:09;15.60;46.60
1135;DHT22;556;53.550;10.048;2022-11-02T00:12:36;15.60;47.10
1135;DHT22;556;53.550;10.048;2022-11-02T00:15:04;15.70;46.60
1135;DHT22;556;53.550;10.048;2022-11-02T00:17:32;15.70;46.60
1135;DHT22;556;53.550;10.048;2022-11-02T00:20:01;15.80;47.10
1135;DHT22;556;53.550;10.048;2022-11-02T00:22:30;15.80;47.60
1135;DHT22;556;53.550;10.048;2022-11-02T00:25:00;15.80;46.70
1135;DHT22;556;53.550;10.048;2022-11-02T00:27:29;15.80;46.70
1135;DHT22;556;53.550;10.048;2022-11-02T00:29:57;15.80;47.00
1135;DHT22;556;53.550;10.048;2022-11-02T00:32:25;15.80;46.70
1135;DHT22;556;53.550;10.048;2022-11-02T00:34:52;15.80;46.70
1135;DHT22;556;53.550;10.048;2022-11-02T00:37:19;15.80;46.70
1135;DHT22;556;53.550;10.048;2022-11-02T00:39:48;15.80;46.70
1135;DHT22;556;53.550;10.048;2022-11-02T00:42:15;15.80;46.70
1135;DHT22;556;53.550;10.048;2022-11-02T00:44:42;15.90;46.80
1135;DHT22;556;53.550;10.048;2022-11-02T00:47:11;15.90;47.20
1135;DHT22;556;53.550;10.048;2022-11-02T00:49:39;15.80;46.70
1135;DHT22;556;53.550;10.048;2022-11-02T00:52:07;15.80;47.20
1135;DHT22;556;53.550;10.048;2022-11-02T00:54:34;15.80;47.20
1135;DHT22;556;53.550;10.048;2022-11-02T00:57:03;15.80;46.80
1135;DHT22;556;53.550;10.048;2022-11-02T00:59:30;15.80;47.20
1135;DHT22;556;53.550;10.048;2022-11-02T01:01:57;15.80;46.80
1135;DHT22;556;53.550;10.048;2022-11-02T01:04:24;15.80;46.80
1135;DHT22;556;53.550;10.048;2022-11-02T01:06:51;15.80;46.80
1135;DHT22;556;53.550;10.048;2022-11-02T01:09:19;15.80;47.20
1135;DHT22;556;53.550;10.048;2022-11-02T01:11:46;15.80;46.80
1135;DHT22;556;53.550;10.048;2022-11-02T01:14:15;15.80;47.30
1135;DHT22;556;53.550;10.048;2022-11-02T01:16:42;15.80;46.90
1135;DHT22;556;53.550;10.048;2022-11-02T01:19:10;15.80;46.80
1135;DHT22;556;53.550;10.048;2022-11-02T01:21:37;15.80;47.30
1135;DHT22;556;53.550;10.048;2022-11-02T01:24:05;15.90;46.80
1135;DHT22;556;53.550;10.048;2022-11-02T01:26:32;15.90;47.40
1135;DHT22;556;53.550;10.048;2022-11-02T01:28:59;15.80;46.80
1135;DHT22;556;53.550;10.048;2022-11-02T01:31:27;15.80;46.80
1135;DHT22;556;53.550;10.048;2022-11-02T01:33:55;15.80;47.20
1135;DHT22;556;53.550;10.048;2022-11-02T01:36:22;15.70;47.30
1135;DHT22;556;53.550;10.048;2022-11-02T01:38:50;15.70;47.30
1135;DHT22;556;53.550;10.048;2022-11-02T01:41:19;15.70;47.00
1135;DHT22;556;53.550;10.048;2022-11-02T01:43:50;15.70;47.40
1135;DHT22;556;53.550;10.048;2022-11-02T01:46:22;15.60;46.90
1135;DHT22;556;53.550;10.048;2022-11-02T01:49:00;15.70;47.50
1135;DHT22;556;53.550;10.048;2022-11-02T01:51:30;15.70;47.00
1135;DHT22;556;53.550;10.048;2022-11-02T01:54:03;15.70;47.00
1135;DHT22;556;53.550;10.048;2022-11-02T01:56:32;15.70;47.40
1135;DHT22;556;53.550;10.048;2022-11-02T01:59:03;15.80;47.40
1135;DHT22;556;53.550;10.048;2022-11-02T02:01:32;15.80;47.40
1135;DHT22;556;53.550;10.048;2022-11-02T02:04:01;15.90;46.90
1135;DHT22;556;53.550;10.048;2022-11-02T02:06:33;15.90;46.90
1135;DHT22;556;53.550;10.048;2022-11-02T02:09:04;15.90;46.80
1135;DHT22;556;53.550;10.048;2022-11-02T02:11:34;15.90;46.90
1135;DHT22;556;53.550;10.048;2022-11-02T02:14:04;16.00;47.40
1135;DHT22;556;53.550;10.048;2022-11-02T02:16:49;16.00;46.90
1135;DHT22;556;53.550;10.048;2022-11-02T02:25:13;16.00;46.80
1135;DHT22;556;53.550;10.048;2022-11-02T02:27:58;16.10;46.90
1135;DHT22;556;53.550;10.048;2022-11-02T02:30:36;16.10;47.40
1135;DHT22;556;53.550;10.048;2022-11-02T02:33:08;16.10;46.80
1135;DHT22;556;53.550;10.048;2022-11-02T02:35:44;16.20;46.80
1135;DHT22;556;53.550;10.048;2022-11-02T02:38:14;16.20;46.80
1135;DHT22;556;53.550;10.048;2022-11-02T02:40:47;16.20;46.70
1135;DHT22;556;53.550;10.048;2022-11-02T02:43:23;16.30;46.80
1135;DHT22;556;53.550;10.048;2022-11-02T02:45:54;16.40;46.80
1135;DHT22;556;53.550;10.048;2022-11-02T02:48:25;16.30;46.70
1135;DHT22;556;53.550;10.048;2022-11-02T02:50:54;16.40;46.80
1135;DHT22;556;53.550;10.048;2022-11-02T02:53:27;16.40;46.80
1135;DHT22;556;53.550;10.048;2022-11-02T02:55:57;16.40;46.80
1135;DHT22;556;53.550;10.048;2022-11-02T02:58:31;16.30;47.20
1135;DHT22;556;53.550;10.048;2022-11-02T03:01:01;16.30;46.80
1135;DHT22;556;53.550;10.048;2022-11-02T03:03:32;16.30;47.30
1135;DHT22;556;53.550;10.048;2022-11-02T03:06:04;16.30;46.80
1135;DHT22;556;53.550;10.048;2022-11-02T03:08:37;16.30;46.80
1135;DHT22;556;53.550;10.048;2022-11-02T03:11:11;16.40;46.90
1135;DHT22;556;53.550;10.048;2022-11-02T03:13:54;16.40;46.90
1135;DHT22;556;53.550;10.048;2022-11-02T03:16:37;16.40;46.80
1135;DHT22;556;53.550;10.048;2022-11-02T03:19:19;16.40;46.80
1135;DHT22;556;53.550;10.048;2022-11-02T03:21:54;16.40;46.80
1135;DHT22;556;53.550;10.048;2022-11-02T03:24:32;16.40;46.90
1135;DHT22;556;53.550;10.048;2022-11-02T03:27:08;16.40;47.00
1135;DHT22;556;53.550;10.048;2022-11-02T03:29:45;16.40;47.00
1135;DHT22;556;53.550;10.048;2022-11-02T03:32:21;16.30;46.90
1135;DHT22;556;53.550;10.048;2022-11-02T03:34:54;16.30;47.00
1135;DHT22;556;53.550;10.048;2022-11-02T03:42:33;16.30;47.20
1135;DHT22;556;53.550;10.048;2022-11-02T03:45:08;16.30;47.20
1135;DHT22;556;53.550;10.048;2022-11-02T03:47:36;16.30;47.20
1135;DHT22;556;53.550;10.048;2022-11-02T03:50:10;16.30;47.20
1135;DHT22;556;53.550;10.048;2022-11-02T03:52:43;16.20;47.60
1135;DHT22;556;53.550;10.048;2022-11-02T03:55:14;16.20;47.20
1135;DHT22;556;53.550;10.048;2022-11-02T03:57:45;16.20;47.30
1135;DHT22;556;53.550;10.048;2022-11-02T04:00:20;16.20;47.30
1135;DHT22;556;53.550;10.048;2022-11-02T04:02:58;16.20;47.40
1135;DHT22;556;53.550;10.048;2022-11-02T04:05:31;16.20;47.70
1135;DHT22;556;53.550;10.048;2022-11-02T04:08:03;16.10;47.40
1135;DHT22;556;53.550;10.048;2022-11-02T04:13:44;16.00;47.40
1135;DHT22;556;53.550;10.048;2022-11-02T04:16:35;16.00;47.50
1135;DHT22;556;53.550;10.048;2022-11-02T04:19:08;16.00;47.90
1135;DHT22;556;53.550;10.048;2022-11-02T04:21:54;16.00;47.80
1135;DHT22;556;53.550;10.048;2022-11-02T04:24:41;16.00;48.00
1135;DHT22;556;53.550;10.048;2022-11-02T04:27:46;16.00;47.50
1135;DHT22;556;53.550;10.048;2022-11-02T04:30:17;16.00;47.50
1135;DHT22;556;53.550;10.048;2022-11-02T04:32:47;16.00;47.50
1135;DHT22;556;53.550;10.048;2022-11-02T04:35:38;16.00;48.00
1135;DHT22;556;53.550;10.048;2022-11-02T04:38:06;16.00;47.60
1135;DHT22;556;53.550;10.048;2022-11-02T04:40:51;16.00;48.50
1135;DHT22;556;53.550;10.048;2022-11-02T04:43:38;16.10;48.00
1135;DHT22;556;53.550;10.048;2022-11-02T04:46:07;16.00;48.10
1135;DHT22;556;53.550;10.048;2022-11-02T04:48:35;16.00;47.80
1135;DHT22;556;53.550;10.048;2022-11-02T04:51:03;16.00;47.80
1135;DHT22;556;53.550;10.048;2022-11-02T04:53:31;15.90;48.20
1135;DHT22;556;53.550;10.048;2022-11-02T04:56:01;15.90;47.90
1135;DHT22;556;53.550;10.048;2022-11-02T04:58:28;15.90;48.30
1135;DHT22;556;53.550;10.048;2022-11-02T05:00:56;15.80;47.90
1135;DHT22;556;53.550;10.048;2022-11-02T05:03:23;15.90;48.40
1135;DHT22;556;53.550;10.048;2022-11-02T05:05:54;15.90;48.40
1135;DHT22;556;53.550;10.048;2022-11-02T05:08:22;15.90;48.40
1135;DHT22;556;53.550;10.048;2022-11-02T05:10:53;15.90;47.90
1135;DHT22;556;53.550;10.048;2022-11-02T05:15:48;15.80;47.90
1135;DHT22;556;53.550;10.048;2022-11-02T05:18:16;15.90;48.50
1135;DHT22;556;53.550;10.048;2022-11-02T05:20:49;15.90;48.00
1135;DHT22;556;53.550;10.048;2022-11-02T05:23:20;15.80;47.90
1135;DHT22;556;53.550;10.048;2022-11-02T05:25:52;15.80;48.00
1135;DHT22;556;53.550;10.048;2022-11-02T05:28:19;15.80;48.50
1135;DHT22;556;53.550;10.048;2022-11-02T05:30:46;15.80;48.50
1135;DHT22;556;53.550;10.048;2022-11-02T05:33:17;15.80;48.50
1135;DHT22;556;53.550;10.048;2022-11-02T05:38:12;15.80;48.00
1135;DHT22;556;53.550;10.048;2022-11-02T05:40:41;15.90;48.10
1135;DHT22;556;53.550;10.048;2022-11-02T05:43:10;15.80;48.50
1135;DHT22;556;53.550;10.048;2022-11-02T05:45:38;15.80;48.10
1135;DHT22;556;53.550;10.048;2022-11-02T05:48:05;15.70;48.10
1135;DHT22;556;53.550;10.048;2022-11-02T05:50:32;15.60;48.50
1135;DHT22;556;53.550;10.048;2022-11-02T05:53:02;15.50;48.30
1135;DHT22;556;53.550;10.048;2022-11-02T05:55:29;15.40;48.40
1135;DHT22;556;53.550;10.048;2022-11-02T05:57:58;15.30;48.30
1135;DHT22;556;53.550;10.048;2022-11-02T06:00:26;15.20;48.40
1135;DHT22;556;53.550;10.048;2022-11-02T06:02:56;15.20;48.40
1135;DHT22;556;53.550;10.048;2022-11-02T06:05:25;15.20;49.00
1135;DHT22;556;53.550;10.048;2022-11-02T06:07:56;15.30;48.40
1135;DHT22;556;53.550;10.048;2022-11-02T06:10:24;15.30;48.40
1135;DHT22;556;53.550;10.048;2022-11-02T06:12:54;15.30;48.90
1135;DHT22;556;53.550;10.048;2022-11-02T06:15:22;15.40;48.40
1135;DHT22;556;53.550;10.048;2022-11-02T06:17:50;15.40;48.80
1135;DHT22;556;53.550;10.048;2022-11-02T06:20:18;15.50;48.40
1135;DHT22;556;53.550;10.048;2022-11-02T06:22:45;15.50;48.40
1135;DHT22;556;53.550;10.048;2022-11-02T06:25:13;15.50;48.40
1135;DHT22;556;53.550;10.048;2022-11-02T06:27:45;15.70;48.40
1135;DHT22;556;53.550;10.048;2022-11-02T06:30:15;15.70;48.40
1135;DHT22;556;53.550;10.048;2022-11-02T06:35:14;15.80;48.40
1135;DHT22;556;53.550;10.048;2022-11-02T06:37:42;15.90;48.50
1135;DHT22;556;53.550;10.048;2022-11-02T06:40:11;15.90;48.50
1135;DHT22;556;53.550;10.048;2022-11-02T06:42:39;15.90;48.50
1135;DHT22;556;53.550;10.048;2022-11-02T06:45:08;16.00;48.60
1135;DHT22;556;53.550;10.048;2022-11-02T06:47:36;15.90;48.40
1135;DHT22;556;53.550;10.048;2022-11-02T06:50:05;16.00;48.60
1135;DHT22;556;53.550;10.048;2022-11-02T06:52:33;16.00;48.60
1135;DHT22;556;53.550;10.048;2022-11-02T06:55:00;16.10;48.60
1135;DHT22;556;53.550;10.048;2022-11-02T06:57:34;16.10;48.50
1135;DHT22;556;53.550;10.048;2022-11-02T07:00:02;16.20;49.10
1135;DHT22;556;53.550;10.048;2022-11-02T07:02:30;16.20;48.60
1135;DHT22;556;53.550;10.048;2022-11-02T07:04:57;16.30;48.70
1135;DHT22;556;53.550;10.048;2022-11-02T07:07:26;16.30;49.20
1135;DHT22;556;53.550;10.048;2022-11-02T07:09:53;16.30;48.70
1135;DHT22;556;53.550;10.048;2022-11-02T07:12:20;16.40;48.80
1135;DHT22;556;53.550;10.048;2022-11-02T07:14:48;16.40;48.70
1135;DHT22;556;53.550;10.048;2022-11-02T07:17:16;16.40;48.70
1135;DHT22;556;53.550;10.048;2022-11-02T07:19:43;16.30;48.70
1135;DHT22;556;53.550;10.048;2022-11-02T07:22:11;16.30;49.30
1135;DHT22;556;53.550;10.048;2022-11-02T07:27:07;16.20;48.90
1135;DHT22;556;53.550;10.048;2022-11-02T07:29:34;16.20;49.40
1135;DHT22;556;53.550;10.048;2022-11-02T07:32:01;16.20;49.00
1135;DHT22;556;53.550;10.048;2022-11-02T07:34:28;16.20;49.40
1135;DHT22;556;53.550;10.048;2022-11-02T07:36:55;16.30;49.30
1135;DHT22;556;53.550;10.048;2022-11-02T07:39:22;16.40;49.30
1135;DHT22;556;53.550;10.048;2022-11-02T07:41:51;16.60;48.80
1135;DHT22;556;53.550;10.048;2022-11-02T07:44:18;16.60;49.20
1135;DHT22;556;53.550;10.048;2022-11-02T07:49:21;16.90;48.60
1135;DHT22;556;53.550;10.048;2022-11-02T07:51:49;16.80;48.60
1135;DHT22;556;53.550;10.048;2022-11-02T07:54:16;16.80;49.10
1135;DHT22;556;53.550;10.048;2022-11-02T07:56:45;16.70;48.70
1135;DHT22;556;53.550;10.048;2022-11-02T07:59:13;16.70;48.70
1135;DHT22;556;53.550;10.048;2022-11-02T08:01:40;16.70;48.80
1135;DHT22;556;53.550;10.048;2022-11-02T08:04:07;16.70;48.80
1135;DHT22;556;53.550;10.048;2022-11-02T08:06:34;16.80;49.20
1135;DHT22;556;53.550;10.048;2022-11-02T08:09:02;17.00;49.00
1135;DHT22;556;53.550;10.048;2022-11-02T08:11:29;17.20;48.50
1135;DHT22;556;53.550;10.048;2022-11-02T08:13:56;17.10;48.50
1135;DHT22;556;53.550;10.048;2022-11-02T08:16:25;17.10;48.50
1135;DHT22;556;53.550;10.048;2022-11-02T08:18:52;17.30;48.60
1135;DHT22;556;53.550;10.048;2022-11-02T08:21:19;17.40;48.40
1135;DHT22;556;53.550;10.048;2022-11-02T08:23:46;17.30;48.30
1135;DHT22;556;53.550;10.048;2022-11-02T08:26:13;17.40;48.40
1135;DHT22;556;53.550;10.048;2022-11-02T08:28:40;17.40;48.40
1135;DHT22;556;53.550;10.048;2022-11-02T08:31:11;17.40;48.40
1135;DHT22;556;53.550;10.048;2022-11-02T08:33:42;17.40;48.40
1135;DHT22;556;53.550;10.048;2022-11-02T08:36:09;17.30;48.30
1135;DHT22;556;53.550;10.048;2022-11-02T08:38:37;17.40;48.40
1135;DHT22;556;53.550;10.048;2022-11-02T08:41:05;17.30;48.20
1135;DHT22;556;53.550;10.048;2022-11-02T08:43:32;17.40;48.30
1135;DHT22;556;53.550;10.048;2022-11-02T08:45:59;17.40;48.80
1135;DHT22;556;53.550;10.048;2022-11-02T08:48:27;17.40;48.20
1135;DHT22;556;53.550;10.048;2022-11-02T08:50:56;17.40;48.10
1135;DHT22;556;53.550;10.048;2022-11-02T08:53:26;17.40;49.10
1135;DHT22;556;53.550;10.048;2022-11-02T08:55:55;17.50;48.00
1135;DHT22;556;53.550;10.048;2022-11-02T08:58:23;17.70;47.90
1135;DHT22;556;53.550;10.048;2022-11-02T09:00:52;17.70;47.80
1135;DHT22;556;53.550;10.048;2022-11-02T09:03:19;17.70;47.70
1135;DHT22;556;53.550;10.048;2022-11-02T09:05:49;17.80;47.90
1135;DHT22;556;53.550;10.048;2022-11-02T09:08:23;17.90;47.80
1135;DHT22;556;53.550;10.048;2022-11-02T09:10:50;17.90;48.20
1135;DHT22;556;53.550;10.048;2022-11-02T09:13:19;18.00;47.60
1135;DHT22;556;53.550;10.048;2022-11-02T09:15:51;18.00;47.40
1135;DHT22;556;53.550;10.048;2022-11-02T09:18:19;18.00;47.40
1135;DHT22;556;53.550;10.048;2022-11-02T09:20:46;17.90;47.40
1135;DHT22;556;53.550;10.048;2022-11-02T09:23:16;17.90;47.50
1135;DHT22;556;53.550;10.048;2022-11-02T09:25:45;17.90;48.00
1135;DHT22;556;53.550;10.048;2022-11-02T09:28:12;18.00;47.40
1135;DHT22;556;53.550;10.048;2022-11-02T09:30:40;18.10;47.20
1135;DHT22;556;53.550;10.048;2022-11-02T09:33:08;18.10;47.70
1135;DHT22;556;53.550;10.048;2022-11-02T09:35:38;18.20;47.20
1135;DHT22;556;53.550;10.048;2022-11-02T09:38:08;18.20;47.20
1135;DHT22;556;53.550;10.048;2022-11-02T09:40:37;18.20;47.20
1135;DHT22;556;53.550;10.048;2022-11-02T09:43:13;18.20;47.70
1135;DHT22;556;53.550;10.048;2022-11-02T09:45:52;18.30;47.00
1135;DHT22;556;53.550;10.048;2022-11-02T09:48:24;18.30;46.90
1135;DHT22;556;53.550;10.048;2022-11-02T09:50:56;18.30;47.00
1135;DHT22;556;53.550;10.048;2022-11-02T09:53:35;18.20;47.00
1135;DHT22;556;53.550;10.048;2022-11-02T09:56:06;18.20;46.80
1135;DHT22;556;53.550;10.048;2022-11-02T10:01:16;18.10;46.80
1135;DHT22;556;53.550;10.048;2022-11-02T10:04:02;18.10;46.80
1135;DHT22;556;53.550;10.048;2022-11-02T10:06:33;18.00;46.80
1135;DHT22;556;53.550;10.048;2022-11-02T10:11:41;18.10;46.80
1135;DHT22;556;53.550;10.048;2022-11-02T10:14:17;18.00;46.60
1135;DHT22;556;53.550;10.048;2022-11-02T10:16:50;17.80;46.40
1135;DHT22;556;53.550;10.048;2022-11-02T10:19:19;17.50;46.40
1135;DHT22;556;53.550;10.048;2022-11-02T10:21:48;17.10;47.00
1135;DHT22;556;53.550;10.048;2022-11-02T10:24:23;16.40;47.70
1135;DHT22;556;53.550;10.048;2022-11-02T10:26:54;15.50;48.30
1135;DHT22;556;53.550;10.048;2022-11-02T10:29:33;15.50;48.60
1135;DHT22;556;53.550;10.048;2022-11-02T10:32:04;15.50;48.50
1135;DHT22;556;53.550;10.048;2022-11-02T10:34:32;15.70;48.40
1135;DHT22;556;53.550;10.048;2022-11-02T10:37:13;15.80;48.30
1135;DHT22;556;53.550;10.048;2022-11-02T10:39:50;16.00;48.10
1135;DHT22;556;53.550;10.048;2022-11-02T10:42:30;16.10;48.00
1135;DHT22;556;53.550;10.048;2022-11-02T10:45:33;16.10;48.00
1135;DHT22;556;53.550;10.048;2022-11-02T10:48:11;16.10;48.50
1135;DHT22;556;53.550;10.048;2022-11-02T10:50:46;16.00;48.10
1135;DHT22;556;53.550;10.048;2022-11-02T10:53:14;16.20;48.30
1135;DHT22;556;53.550;10.048;2022-11-02T10:55:50;16.30;48.20
1135;DHT22;556;53.550;10.048;2022-11-02T10:58:21;16.40;48.20
1135;DHT22;556;53.550;10.048;2022-11-02T11:00:50;16.70;48.00
1135;DHT22;556;53.550;10.048;2022-11-02T11:03:29;17.00;48.00
1135;DHT22;556;53.550;10.048;2022-11-02T11:05:58;17.20;48.00
1135;DHT22;556;53.550;10.048;2022-11-02T11:08:34;17.40;48.00
1135;DHT22;556;53.550;10.048;2022-11-02T11:11:14;17.50;48.00
1135;DHT22;556;53.550;10.048;2022-11-02T11:13:45;17.60;48.00
1135;DHT22;556;53.550;10.048;2022-11-02T11:16:33;17.80;47.90
1135;DHT22;556;53.550;10.048;2022-11-02T11:19:04;17.90;47.70
1135;DHT22;556;53.550;10.048;2022-11-02T11:21:37;17.90;47.70
1135;DHT22;556;53.550;10.048;2022-11-02T11:24:27;18.20;47.70
1135;DHT22;556;53.550;10.048;2022-11-02T11:27:13;18.20;47.50
1135;DHT22;556;53.550;10.048;2022-11-02T11:29:46;18.20;47.60
1135;DHT22;556;53.550;10.048;2022-11-02T11:32:17;18.30;47.50
1135;DHT22;556;53.550;10.048;2022-11-02T11:34:52;18.30;48.00
1135;DHT22;556;53.550;10.048;2022-11-02T11:37:23;18.50;47.40
1135;DHT22;556;53.550;10.048;2022-11-02T11:39:54;18.50;47.30
1135;DHT22;556;53.550;10.048;2022-11-02T11:42:23;18.50;47.30
1135;DHT22;556;53.550;10.048;2022-11-02T11:44:56;18.50;47.60
1135;DHT22;556;53.550;10.048;2022-11-02T11:47:27;18.30;47.00
1135;DHT22;556;53.550;10.048;2022-11-02T11:49:59;18.40;47.20
1135;DHT22;556;53.550;10.048;2022-11-02T11:52:30;18.30;47.10
1135;DHT22;556;53.550;10.048;2022-11-02T11:54:59;18.30;47.10
1135;DHT22;556;53.550;10.048;2022-11-02T11:57:28;18.10;47.20
1135;DHT22;556;53.550;10.048;2022-11-02T11:59:57;17.90;47.10
1135;DHT22;556;53.550;10.048;2022-11-02T12:02:29;17.50;47.20
1135;DHT22;556;53.550;10.048;2022-11-02T12:05:03;17.20;47.40
1135;DHT22;556;53.550;10.048;2022-11-02T12:07:55;17.00;47.40
1135;DHT22;556;53.550;10.048;2022-11-02T12:10:38;16.50;47.70
1135;DHT22;556;53.550;10.048;2022-11-02T12:13:19;16.10;48.00
1135;DHT22;556;53.550;10.048;2022-11-02T12:16:02;15.90;48.10
1135;DHT22;556;53.550;10.048;2022-11-02T12:18:47;15.70;48.30
1135;DHT22;556;53.550;10.048;2022-11-02T12:21:27;15.60;48.30
1135;DHT22;556;53.550;10.048;2022-11-02T12:24:10;15.60;48.30
1135;DHT22;556;53.550;10.048;2022-11-02T12:26:49;15.50;48.20
1135;DHT22;556;53.550;10.048;2022-11-02T12:29:46;15.60;48.80
1135;DHT22;556;53.550;10.048;2022-11-02T12:32:24;15.70;48.30
1135;DHT22;556;53.550;10.048;2022-11-02T12:35:15;15.70;48.30
1135;DHT22;556;53.550;10.048;2022-11-02T12:37:59;15.90;48.20
1135;DHT22;556;53.550;10.048;2022-11-02T12:40:42;16.10;48.20
1135;DHT22;556;53.550;10.048;2022-11-02T12:43:28;16.30;48.10
1135;DHT22;556;53.550;10.048;2022-11-02T12:46:01;16.30;48.10
1135;DHT22;556;53.550;10.048;2022-11-02T12:48:35;16.40;48.10
1135;DHT22;556;53.550;10.048;2022-11-02T12:51:11;16.60;48.20
1135;DHT22;556;53.550;10.048;2022-11-02T12:53:44;16.60;48.70
1135;DHT22;556;53.550;10.048;2022-11-02T12:56:17;16.80;48.10
1135;DHT22;556;53.550;10.048;2022-11-02T12:58:45;16.90;48.00
1135;DHT22;556;53.550;10.048;2022-11-02T13:01:19;17.10;48.00
1135;DHT22;556;53.550;10.048;2022-11-02T13:03:50;17.20;47.70
1135;DHT22;556;53.550;10.048;2022-11-02T13:06:23;17.30;47.80
1135;DHT22;556;53.550;10.048;2022-11-02T13:11:23;17.50;47.40
1135;DHT22;556;53.550;10.048;2022-11-02T13:13:53;17.50;47.50
1135;DHT22;556;53.550;10.048;2022-11-02T13:16:29;17.50;47.60
1135;DHT22;556;53.550;10.048;2022-11-02T13:18:59;17.50;48.00
1135;DHT22;556;53.550;10.048;2022-11-02T13:21:33;17.30;47.40
1135;DHT22;556;53.550;10.048;2022-11-02T13:24:04;17.00;47.10
1135;DHT22;556;53.550;10.048;2022-11-02T13:26:33;16.30;47.50
1135;DHT22;556;53.550;10.048;2022-11-02T13:29:06;15.90;47.90
1135;DHT22;556;53.550;10.048;2022-11-02T13:31:41;14.90;48.90
1135;DHT22;556;53.550;10.048;2022-11-02T13:34:11;14.60;49.30
1135;DHT22;556;53.550;10.048;2022-11-02T13:39:13;14.60;49.40
1135;DHT22;556;53.550;10.048;2022-11-02T13:51:06;14.80;48.70
1135;DHT22;556;53.550;10.048;2022-11-02T13:53:40;14.80;48.80
1135;DHT22;556;53.550;10.048;2022-11-02T13:56:11;14.90;48.90
1135;DHT22;556;53.550;10.048;2022-11-02T13:58:52;15.00;49.00
1135;DHT22;556;53.550;10.048;2022-11-02T14:01:21;15.10;49.10
1135;DHT22;556;53.550;10.048;2022-11-02T14:03:51;15.20;49.20
1135;DHT22;556;53.550;10.048;2022-11-02T14:06:20;15.50;49.50
1135;DHT22;556;53.550;10.048;2022-11-02T14:08:52;16.30;49.80
1135;DHT22;556;53.550;10.048;2022-11-02T14:11:34;16.70;49.70
1135;DHT22;556;53.550;10.048;2022-11-02T14:14:14;17.20;49.70
1135;DHT22;556;53.550;10.048;2022-11-02T14:16:44;17.50;49.80
1135;DHT22;556;53.550;10.048;2022-11-02T14:19:22;18.00;50.00
1135;DHT22;556;53.550;10.048;2022-11-02T14:22:08;18.40;50.10
1135;DHT22;556;53.550;10.048;2022-11-02T14:25:12;18.70;50.20
1135;DHT22;556;53.550;10.048;2022-11-02T14:27:40;19.00;50.00
1135;DHT22;556;53.550;10.048;2022-11-02T14:30:42;19.10;50.10
1135;DHT22;556;53.550;10.048;2022-11-02T14:36:39;19.40;50.10
1135;DHT22;556;53.550;10.048;2022-11-02T14:39:14;19.30;50.30
1135;DHT22;556;53.550;10.048;2022-11-02T14:42:03;19.20;50.90
1135;DHT22;556;53.550;10.048;2022-11-02T14:47:27;19.00;49.90
1135;DHT22;556;53.550;10.048;2022-11-02T14:49:57;19.10;50.50
1135;DHT22;556;53.550;10.048;2022-11-02T14:52:27;19.10;49.40
1135;DHT22;556;53.550;10.048;2022-11-02T14:55:00;19.00;49.10
1135;DHT22;556;53.550;10.048;2022-11-02T14:57:33;18.70;48.70
1135;DHT22;556;53.550;10.048;2022-11-02T15:00:04;18.30;48.40
1135;DHT22;556;53.550;10.048;2022-11-02T15:02:34;18.00;48.40
1135;DHT22;556;53.550;10.048;2022-11-02T15:05:05;17.50;48.20
1135;DHT22;556;53.550;10.048;2022-11-02T15:07:36;17.30;48.10
1135;DHT22;556;53.550;10.048;2022-11-02T15:10:38;17.10;48.10
1135;DHT22;556;53.550;10.048;2022-11-02T15:13:35;17.10;48.00
1135;DHT22;556;53.550;10.048;2022-11-02T15:16:25;17.00;47.90
1135;DHT22;556;53.550;10.048;2022-11-02T15:19:36;16.90;47.80
1135;DHT22;556;53.550;10.048;2022-11-02T15:22:28;16.80;47.70
1135;DHT22;556;53.550;10.048;2022-11-02T15:25:02;16.70;47.50
1135;DHT22;556;53.550;10.048;2022-11-02T15:27:31;16.60;47.40
1135;DHT22;556;53.550;10.048;2022-11-02T15:30:01;16.50;47.30
1135;DHT22;556;53.550;10.048;2022-11-02T15:32:33;16.30;47.20
1135;DHT22;556;53.550;10.048;2022-11-02T15:35:05;16.20;47.20
1135;DHT22;556;53.550;10.048;2022-11-02T15:37:32;16.10;47.00
1135;DHT22;556;53.550;10.048;2022-11-02T15:40:02;16.10;47.00
1135;DHT22;556;53.550;10.048;2022-11-02T15:42:37;16.00;47.00
1135;DHT22;556;53.550;10.048;2022-11-02T15:45:20;16.00;47.40
1135;DHT22;556;53.550;10.048;2022-11-02T15:48:00;15.80;46.90
1135;DHT22;556;53.550;10.048;2022-11-02T15:50:37;15.70;47.00
1135;DHT22;556;53.550;10.048;2022-11-02T15:53:27;15.60;47.00
1135;DHT22;556;53.550;10.048;2022-11-02T15:56:09;15.60;47.00
1135;DHT22;556;53.550;10.048;2022-11-02T15:58:50;15.40;46.90
1135;DHT22;556;53.550;10.048;2022-11-02T16:01:25;15.30;47.00
1135;DHT22;556;53.550;10.048;2022-11-02T16:03:54;15.30;47.10
1135;DHT22;556;53.550;10.048;2022-11-02T16:06:24;15.20;47.10
1135;DHT22;556;53.550;10.048;2022-11-02T16:08:52;15.20;47.10
1135;DHT22;556;53.550;10.048;2022-11-02T16:11:19;15.20;47.50
1135;DHT22;556;53.550;10.048;2022-11-02T16:13:46;15.10;47.10
1135;DHT22;556;53.550;10.048;2022-11-02T16:18:46;15.00;47.10
1135;DHT22;556;53.550;10.048;2022-11-02T16:21:17;15.00;47.10
1135;DHT22;556;53.550;10.048;2022-11-02T16:23:47;14.90;47.10
1135;DHT22;556;53.550;10.048;2022-11-02T16:26:17;14.90;47.20
1135;DHT22;556;53.550;10.048;2022-11-02T16:28:48;14.80;47.20
1135;DHT22;556;53.550;10.048;2022-11-02T16:31:18;14.80;47.30
1135;DHT22;556;53.550;10.048;2022-11-02T16:33:49;14.80;47.30
1135;DHT22;556;53.550;10.048;2022-11-02T16:36:18;14.70;47.20
1135;DHT22;556;53.550;10.048;2022-11-02T16:38:51;14.70;47.20
1135;DHT22;556;53.550;10.048;2022-11-02T16:41:19;14.70;47.30
1135;DHT22;556;53.550;10.048;2022-11-02T16:43:48;14.70;47.30
1135;DHT22;556;53.550;10.048;2022-11-02T16:46:16;14.70;47.30
1135;DHT22;556;53.550;10.048;2022-11-02T16:49:13;14.70;47.30
1135;DHT22;556;53.550;10.048;2022-11-02T16:51:51;14.70;47.30
1135;DHT22;556;53.550;10.048;2022-11-02T16:54:27;14.60;47.30
1135;DHT22;556;53.550;10.048;2022-11-02T16:56:58;14.60;47.30
1135;DHT22;556;53.550;10.048;2022-11-02T16:59:26;14.50;47.40
1135;DHT22;556;53.550;10.048;2022-11-02T17:01:57;14.60;47.40
1135;DHT22;556;53.550;10.048;2022-11-02T17:04:28;14.50;47.40
1135;DHT22;556;53.550;10.048;2022-11-02T17:07:06;14.60;47.40
1135;DHT22;556;53.550;10.048;2022-11-02T17:09:35;14.60;47.40
1135;DHT22;556;53.550;10.048;2022-11-02T17:12:05;14.50;47.40
1135;DHT22;556;53.550;10.048;2022-11-02T17:14:33;14.50;47.40
1135;DHT22;556;53.550;10.048;2022-11-02T17:17:03;14.50;47.40
1135;DHT22;556;53.550;10.048;2022-11-02T17:19:52;14.40;47.40
1135;DHT22;556;53.550;10.048;2022-11-02T17:22:24;14.30;47.40
1135;DHT22;556;53.550;10.048;2022-11-02T17:25:09;14.20;47.40
1135;DHT22;556;53.550;10.048;2022-11-02T17:27:43;14.20;47.40
1135;DHT22;556;53.550;10.048;2022-11-02T17:33:24;14.10;47.40